Time;durP1;ratioP1;P1;durP2;ratioP2;P2;SDS_P1;SDS_P2;PMS_P1;PMS_P2;Temp;Humidity;BMP_temperature;BMP_pressure;BME280_temperature;BME280_humidity;BME280_pressure;Samples;Min_cycle;Max_cycle;Signal;HPM_P1;HPM_P2
2022/05/23 00:00:04;;;;;;;5.32;1.70;;;;;;;;;;5077491;28;20039;-85
2022/05/23 00:02:29;;;;;;;5.32;1.50;;;;;;;;;;5056854;28;20037;-85
2022/05/23 00:04:55;;;;;;;5.75;1.60;;;;;;;;;;5070925;28;20035;-85
2022/05/23 00:07:27;;;;;;;6.30;1.90;;;;;;;;;;5060681;28;20028;-84
2022/05/23 00:09:53;;;;;;;3.67;1.98;;;;;;;;;;5077071;28;20035;-85
2022/05/23 00:12:18;;;;;;;4.10;1.85;;;;;;;;;;5060782;28;20402;-85
2022/05/23 00:14:44;;;;;;;3.20;1.67;;;;;;;;;;5060952;28;20055;-85
2022/05/23 00:17:11;;;;;;;5.75;1.90;;;;;;;;;;5060686;28;20499;-84
2022/05/23 00:19:36;;;;;;;6.13;2.20;;;;;;;;;;5060275;28;20077;-86
2022/05/23 00:22:02;;;;;;;9.48;2.20;;;;;;;;;;5090763;28;20032;-85
2022/05/23 00:24:28;;;;;;;4.35;2.10;;;;;;;;;;5095243;28;20067;-84
2022/05/23 00:26:53;;;;;;;7.80;2.20;;;;;;;;;;5095561;28;20027;-84
2022/05/23 00:29:19;;;;;;;5.93;2.45;;;;;;;;;;5095210;28;20024;-86
2022/05/23 00:37:13;;;;;;;5.85;2.03;;;;;;;;;;5075287;28;20097;-87
2022/05/23 00:39:39;;;;;;;4.97;2.30;;;;;;;;;;5038543;28;20514;-86
2022/05/23 00:44:53;;;;;;;6.95;2.30;;;;;;;;;;5053277;28;20047;-85
2022/05/23 00:47:19;;;;;;;5.03;2.38;;;;;;;;;;5076163;28;20524;-85
2022/05/23 00:49:45;;;;;;;4.95;2.00;;;;;;;;;;5076389;28;20444;-84
2022/05/23 00:52:15;;;;;;;7.10;2.15;;;;;;;;;;5076602;28;20036;-85
2022/05/23 00:54:43;;;;;;;6.22;2.15;;;;;;;;;;5094518;28;20082;-84
2022/05/23 00:57:10;;;;;;;6.17;2.10;;;;;;;;;;5052544;28;20050;-85
2022/05/23 00:59:36;;;;;;;5.30;2.20;;;;;;;;;;5059618;28;20276;-85
2022/05/23 01:02:02;;;;;;;7.03;2.22;;;;;;;;;;5059758;28;20478;-85
2022/05/23 01:04:37;;;;;;;6.53;2.08;;;;;;;;;;5060984;28;20032;-85
2022/05/23 01:07:02;;;;;;;6.25;2.38;;;;;;;;;;5094420;28;20084;-85
2022/05/23 01:09:28;;;;;;;5.88;1.70;;;;;;;;;;5076062;28;20032;-84
2022/05/23 01:11:58;;;;;;;6.10;2.17;;;;;;;;;;5077080;28;20028;-84
2022/05/23 01:14:23;;;;;;;5.88;2.40;;;;;;;;;;5076543;28;20150;-86
2022/05/23 01:16:49;;;;;;;6.25;2.00;;;;;;;;;;5076394;28;20066;-88
2022/05/23 01:19:15;;;;;;;5.93;2.30;;;;;;;;;;5076498;28;20043;-88
2022/05/23 01:21:43;;;;;;;6.85;2.50;;;;;;;;;;5075959;28;20489;-87
2022/05/23 01:24:12;;;;;;;3.78;1.90;;;;;;;;;;5059285;28;20537;-89
2022/05/23 01:26:47;;;;;;;7.35;2.15;;;;;;;;;;5049690;28;20033;-88
2022/05/23 01:29:22;;;;;;;7.10;1.90;;;;;;;;;;5057548;28;20026;-87
2022/05/23 01:31:50;;;;;;;6.43;2.80;;;;;;;;;;5039717;28;20024;-88
2022/05/23 01:34:23;;;;;;;5.25;2.10;;;;;;;;;;5065451;28;20039;-87
2022/05/23 01:36:58;;;;;;;4.32;1.85;;;;;;;;;;5055534;28;20028;-81
2022/05/23 01:39:27;;;;;;;4.28;2.17;;;;;;;;;;5075404;28;20028;-82
2022/05/23 01:41:53;;;;;;;10.18;3.50;;;;;;;;;;5076258;28;20024;-85
2022/05/23 01:44:18;;;;;;;4.50;2.20;;;;;;;;;;5059287;28;20580;-87
2022/05/23 01:46:55;;;;;;;5.28;2.10;;;;;;;;;;5048779;28;20067;-85
2022/05/23 01:49:24;;;;;;;3.97;1.83;;;;;;;;;;5049228;28;20040;-86
2022/05/23 01:51:50;;;;;;;5.60;2.22;;;;;;;;;;5043699;28;20031;-86
2022/05/23 01:54:19;;;;;;;;;;;;;;;;;;5076994;28;20036;-86
2022/05/23 01:56:48;;;;;;;4.43;2.53;;;;;;;;;;5041808;28;20465;-86
2022/05/23 02:02:03;;;;;;;5.45;2.28;;;;;;;;;;5063865;28;20031;-87
2022/05/23 02:04:39;;;;;;;4.05;1.92;;;;;;;;;;5085908;28;20512;-87
2022/05/23 02:07:05;;;;;;;5.07;2.05;;;;;;;;;;5053069;28;20039;-86
2022/05/23 02:09:34;;;;;;;5.72;2.20;;;;;;;;;;5075923;28;20054;-86
2022/05/23 02:12:20;;;;;;;7.88;2.40;;;;;;;;;;5095228;28;20032;-84
2022/05/23 02:14:48;;;;;;;5.28;2.05;;;;;;;;;;5079147;28;20036;-85
2022/05/23 02:17:25;;;;;;;7.90;2.20;;;;;;;;;;5046691;28;20027;-86
2022/05/23 02:19:52;;;;;;;5.60;2.17;;;;;;;;;;5061335;28;20024;-86
2022/05/23 02:22:18;;;;;;;5.45;2.58;;;;;;;;;;5045123;28;20124;-87
2022/05/23 02:24:50;;;;;;;6.40;2.40;;;;;;;;;;5061743;28;20078;-85
2022/05/23 02:27:16;;;;;;;5.05;2.35;;;;;;;;;;5075458;28;20475;-87
2022/05/23 02:29:42;;;;;;;6.15;2.25;;;;;;;;;;5076620;28;20024;-85
2022/05/23 02:32:10;;;;;;;6.50;2.00;;;;;;;;;;5054058;28;20027;-87
2022/05/23 02:34:41;;;;;;;6.05;2.50;;;;;;;;;;5061232;28;20032;-85
2022/05/23 02:37:08;;;;;;;8.85;2.30;;;;;;;;;;5061976;28;20024;-86
2022/05/23 02:39:44;;;;;;;7.22;3.35;;;;;;;;;;5062741;28;20042;-86
2022/05/23 02:42:09;;;;;;;6.07;2.83;;;;;;;;;;5082890;28;20098;-83
2022/05/23 02:44:37;;;;;;;10.48;2.80;;;;;;;;;;5080956;28;20032;-85
2022/05/23 02:47:03;;;;;;;7.82;2.50;;;;;;;;;;5060018;28;20024;-84
2022/05/23 02:49:32;;;;;;;7.82;2.53;;;;;;;;;;5042869;28;20028;-85
2022/05/23 02:51:59;;;;;;;7.35;2.25;;;;;;;;;;5076284;28;20047;-84
2022/05/23 02:54:31;;;;;;;8.65;4.57;;;;;;;;;;5076123;28;20042;-85
2022/05/23 02:57:00;;;;;;;16.25;6.85;;;;;;;;;;5059803;28;20080;-84
2022/05/23 02:59:26;;;;;;;6.45;3.85;;;;;;;;;;5042551;28;20370;-84
2022/05/23 03:04:45;;;;;;;9.32;2.65;;;;;;;;;;5076815;28;20035;-83
2022/05/23 03:07:14;;;;;;;17.63;3.17;;;;;;;;;;5066550;28;20140;-84
2022/05/23 03:09:44;;;;;;;4.03;1.90;;;;;;;;;;5043619;28;20039;-86
2022/05/23 03:12:16;;;;;;;5.30;2.40;;;;;;;;;;5062396;28;20035;-85
2022/05/23 03:14:42;;;;;;;11.50;4.95;;;;;;;;;;5027932;28;20033;-86
2022/05/23 03:17:08;;;;;;;7.88;3.03;;;;;;;;;;5060000;28;20033;-86
2022/05/23 03:19:37;;;;;;;6.38;2.60;;;;;;;;;;5054196;28;20048;-85
2022/05/23 03:27:32;;;;;;;6.50;2.95;;;;;;;;;;5076220;28;20032;-85
2022/05/23 03:30:10;;;;;;;6.43;2.72;;;;;;;;;;5098902;28;20015;-84
2022/05/23 03:32:44;;;;;;;5.45;2.47;;;;;;;;;;5085087;28;20035;-86
2022/05/23 03:35:10;;;;;;;8.38;3.38;;;;;;;;;;5117195;28;20046;-87
2022/05/23 03:37:36;;;;;;;8.57;3.15;;;;;;;;;;5098559;28;20031;-87
2022/05/23 03:40:06;;;;;;;8.82;4.15;;;;;;;;;;5100345;28;20171;-86
2022/05/23 03:42:34;;;;;;;9.10;4.15;;;;;;;;;;5101829;28;20050;-84
2022/05/23 03:45:00;;;;;;;7.90;2.55;;;;;;;;;;5101703;28;20043;-86
2022/05/23 03:47:36;;;;;;;6.93;2.40;;;;;;;;;;5098955;28;20031;-87
2022/05/23 03:50:09;;;;;;;4.97;2.30;;;;;;;;;;5095435;28;20034;-85
2022/05/23 03:52:34;;;;;;;5.65;2.42;;;;;;;;;;5096912;28;20032;-87
2022/05/23 03:55:00;;;;;;;6.45;2.25;;;;;;;;;;5097947;28;20020;-84
2022/05/23 03:57:26;;;;;;;9.25;2.90;;;;;;;;;;5073908;28;20035;-85
2022/05/23 03:59:54;;;;;;;5.47;2.63;;;;;;;;;;5059859;28;20035;-86
2022/05/23 04:02:20;;;;;;;5.68;2.45;;;;;;;;;;5056972;28;20048;-85
2022/05/23 04:04:46;;;;;;;7.00;2.55;;;;;;;;;;5076965;28;20030;-88
2022/05/23 04:07:39;;;;;;;6.47;2.42;;;;;;;;;;5067853;28;20032;-87
2022/05/23 04:10:16;;;;;;;5.85;2.40;;;;;;;;;;5074850;28;20025;-85
2022/05/23 04:12:42;;;;;;;6.95;2.63;;;;;;;;;;5092073;28;20035;-86
2022/05/23 04:15:07;;;;;;;7.03;2.40;;;;;;;;;;5086803;28;20028;-88
2022/05/23 04:17:35;;;;;;;5.27;2.40;;;;;;;;;;5086020;28;20039;-84
2022/05/23 04:20:01;;;;;;;8.60;2.85;;;;;;;;;;5046742;28;20047;-86
2022/05/23 04:22:28;;;;;;;8.75;2.70;;;;;;;;;;5078228;28;20028;-86
2022/05/23 04:25:08;;;;;;;5.47;2.50;;;;;;;;;;5079874;28;20027;-85
2022/05/23 04:27:35;;;;;;;9.40;2.83;;;;;;;;;;5063679;28;20035;-85
2022/05/23 04:30:01;;;;;;;14.05;3.53;;;;;;;;;;5078352;28;20060;-83
2022/05/23 04:35:23;;;;;;;7.72;3.20;;;;;;;;;;5070477;23;20495;-81
2022/05/23 04:37:50;;;;;;;7.72;2.60;;;;;;;;;;5074383;28;20033;-82
2022/05/23 04:40:20;;;;;;;9.95;4.03;;;;;;;;;;5057925;28;20024;-83
2022/05/23 04:42:46;;;;;;;5.10;2.30;;;;;;;;;;5074500;28;20024;-81
2022/05/23 04:45:12;;;;;;;3.85;1.98;;;;;;;;;;5048514;28;20049;-82
2022/05/23 04:50:31;;;;;;;6.93;3.05;;;;;;;;;;5026898;28;20025;-82
2022/05/23 04:53:03;;;;;;;12.48;3.35;;;;;;;;;;5039152;28;20039;-81
2022/05/23 04:55:33;;;;;;;4.75;2.28;;;;;;;;;;5040572;28;20068;-80
2022/05/23 04:57:59;;;;;;;6.53;2.30;;;;;;;;;;5006195;28;20040;-81
2022/05/23 05:00:26;;;;;;;9.40;3.00;;;;;;;;;;5038284;28;20278;-81
2022/05/23 05:02:59;;;;;;;8.85;3.00;;;;;;;;;;5030624;28;20030;-82
2022/05/23 05:05:36;;;;;;;6.57;3.33;;;;;;;;;;5042268;28;20040;-80
2022/05/23 05:08:02;;;;;;;10.55;2.88;;;;;;;;;;5039895;28;20033;-82
2022/05/23 05:10:28;;;;;;;7.05;2.55;;;;;;;;;;5022773;28;20043;-82
2022/05/23 05:12:56;;;;;;;9.38;3.95;;;;;;;;;;5039251;28;20029;-81
2022/05/23 05:15:23;;;;;;;;;;;;;;;;;;5036706;28;20032;-82
2022/05/23 05:17:48;;;;;;;9.55;3.13;;;;;;;;;;5035430;28;19968;-83
2022/05/23 05:20:16;;;;;;;7.28;2.40;;;;;;;;;;5020636;28;20037;-82
2022/05/23 05:23:04;;;;;;;8.23;3.13;;;;;;;;;;5053819;28;20060;-83
2022/05/23 05:25:53;;;;;;;;;;;;;;;;;;5021583;28;20029;-82
2022/05/23 05:28:23;;;;;;;7.30;3.45;;;;;;;;;;5038909;28;19915;-79
2022/05/23 05:30:51;;;;;;;5.88;2.95;;;;;;;;;;5040908;28;20032;-81
2022/05/23 05:33:22;;;;;;;8.73;3.85;;;;;;;;;;5043872;28;20033;-81
2022/05/23 05:35:54;;;;;;;6.55;3.08;;;;;;;;;;5022914;28;20597;-82
2022/05/23 05:38:26;;;;;;;7.22;2.72;;;;;;;;;;5054075;28;20437;-82
2022/05/23 05:40:54;;;;;;;7.13;2.63;;;;;;;;;;5020296;28;20108;-82
2022/05/23 05:43:24;;;;;;;8.18;2.90;;;;;;;;;;5019245;28;20051;-82
2022/05/23 05:45:52;;;;;;;12.23;2.55;;;;;;;;;;5020061;28;20053;-81
2022/05/23 05:48:40;;;;;;;7.35;2.70;;;;;;;;;;5036284;28;20032;-78
2022/05/23 05:51:24;;;;;;;5.95;2.35;;;;;;;;;;5020220;28;20120;-81
2022/05/23 05:54:09;;;;;;;7.65;2.72;;;;;;;;;;5052800;28;20056;-83
2022/05/23 05:56:43;;;;;;;8.55;2.58;;;;;;;;;;5052649;28;20483;-81
2022/05/23 05:59:09;;;;;;;8.50;2.20;;;;;;;;;;5018371;28;20510;-81
2022/05/23 06:01:41;;;;;;;6.85;2.70;;;;;;;;;;5019449;28;20029;-80
2022/05/23 06:04:08;;;;;;;10.48;3.10;;;;;;;;;;5035536;28;20029;-80
2022/05/23 06:12:17;;;;;;;8.32;2.60;;;;;;;;;;5036039;28;20033;-78
2022/05/23 06:14:45;;;;;;;7.90;2.50;;;;;;;;;;5019947;28;20369;-81
2022/05/23 06:17:11;;;;;;;7.68;3.47;;;;;;;;;;5036186;28;20472;-79
2022/05/23 06:19:43;;;;;;;7.15;2.13;;;;;;;;;;5035827;28;20033;-80
2022/05/23 06:22:15;;;;;;;4.28;2.30;;;;;;;;;;5019626;28;20043;-80
2022/05/23 06:24:54;;;;;;;4.63;2.10;;;;;;;;;;5052325;28;20056;-79
2022/05/23 06:27:20;;;;;;;8.15;2.40;;;;;;;;;;5036003;28;20099;-80
2022/05/23 06:30:04;;;;;;;8.82;2.55;;;;;;;;;;5054813;28;20021;-82
2022/05/23 06:32:41;;;;;;;8.88;2.10;;;;;;;;;;5008965;28;20029;-80
2022/05/23 06:35:07;;;;;;;5.22;2.10;;;;;;;;;;5040488;28;20029;-79
2022/05/23 06:37:35;;;;;;;6.60;2.13;;;;;;;;;;5023535;28;20032;-80
2022/05/23 06:40:13;;;;;;;6.43;2.17;;;;;;;;;;5062351;28;20071;-80
2022/05/23 06:43:13;;;;;;;9.55;2.85;;;;;;;;;;5055915;28;20502;-80
2022/05/23 06:45:54;;;;;;;8.05;2.45;;;;;;;;;;5053499;28;20029;-81
2022/05/23 06:48:36;;;;;;;3.67;1.80;;;;;;;;;;5033711;28;20032;-81
2022/05/23 06:51:07;;;;;;;5.95;2.00;;;;;;;;;;5035354;28;20041;-81
2022/05/23 06:53:43;;;;;;;8.80;2.15;;;;;;;;;;5054402;28;20053;-82
2022/05/23 06:56:28;;;;;;;6.55;2.05;;;;;;;;;;5057919;28;20059;-81
2022/05/23 06:58:59;;;;;;;7.57;2.42;;;;;;;;;;5042259;28;20040;-80
2022/05/23 07:01:33;;;;;;;10.30;2.40;;;;;;;;;;5025677;28;20039;-80
2022/05/23 07:04:16;;;;;;;9.15;3.60;;;;;;;;;;5061707;28;20069;-83
2022/05/23 07:12:24;;;;;;;4.65;1.85;;;;;;;;;;5030031;28;20049;-80
2022/05/23 07:14:54;;;;;;;8.20;1.90;;;;;;;;;;5027190;28;20026;-79
2022/05/23 07:17:19;;;;;;;9.05;2.40;;;;;;;;;;5026371;28;20104;-82
2022/05/23 07:20:06;;;;;;;5.65;2.13;;;;;;;;;;5032437;28;20029;-82
2022/05/23 07:22:32;;;;;;;6.95;1.90;;;;;;;;;;5029017;28;20025;-82
2022/05/23 07:24:59;;;;;;;9.25;3.22;;;;;;;;;;5049119;28;20029;-81
2022/05/23 07:27:27;;;;;;;5.43;1.95;;;;;;;;;;5050863;28;20040;-81
2022/05/23 07:29:53;;;;;;;4.88;1.50;;;;;;;;;;5061100;28;20025;-81
2022/05/23 07:32:19;;;;;;;6.07;1.80;;;;;;;;;;5062149;28;20056;-80
2022/05/23 07:34:45;;;;;;;4.93;1.40;;;;;;;;;;5042755;28;20032;-80
2022/05/23 07:37:11;;;;;;;7.38;1.55;;;;;;;;;;5051792;28;20036;-80
2022/05/23 07:39:39;;;;;;;4.97;1.80;;;;;;;;;;5047129;28;20029;-81
2022/05/23 07:42:24;;;;;;;8.05;2.30;;;;;;;;;;5032236;28;20032;-81
2022/05/23 07:44:50;;;;;;;6.22;1.50;;;;;;;;;;5044523;28;20035;-81
2022/05/23 07:47:18;;;;;;;9.43;2.10;;;;;;;;;;5026933;28;20081;-81
2022/05/23 07:49:57;;;;;;;7.20;2.20;;;;;;;;;;5043708;28;20120;-80
2022/05/23 07:52:25;;;;;;;5.88;1.73;;;;;;;;;;5042836;28;20422;-80
2022/05/23 08:00:34;;;;;;;6.45;1.77;;;;;;;;;;5059752;28;20033;-79
2022/05/23 08:03:19;;;;;;;7.35;1.80;;;;;;;;;;5035817;28;20033;-80
2022/05/23 08:05:54;;;;;;;5.65;1.90;;;;;;;;;;5033958;28;20502;-80
2022/05/23 08:08:20;;;;;;;5.80;1.92;;;;;;;;;;5018270;28;20495;-80
2022/05/23 08:10:47;;;;;;;4.88;1.58;;;;;;;;;;5051642;28;20026;-82
2022/05/23 08:13:14;;;;;;;7.07;1.70;;;;;;;;;;5017723;28;20040;-82
2022/05/23 08:15:41;;;;;;;6.05;2.28;;;;;;;;;;5035356;28;20044;-80
2022/05/23 08:18:11;;;;;;;8.80;1.73;;;;;;;;;;5051918;28;20026;-80
2022/05/23 08:20:47;;;;;;;7.03;1.70;;;;;;;;;;5033960;28;20037;-80
2022/05/23 08:23:13;;;;;;;7.15;1.70;;;;;;;;;;5017360;28;20044;-80
2022/05/23 08:25:43;;;;;;;7.07;1.80;;;;;;;;;;5029313;28;20298;-80
2022/05/23 08:28:08;;;;;;;8.45;2.60;;;;;;;;;;5036267;28;20017;-80
2022/05/23 08:30:34;;;;;;;6.05;1.60;;;;;;;;;;5020581;28;20032;-79
2022/05/23 08:33:20;;;;;;;12.50;1.83;;;;;;;;;;5022709;28;20033;-80
2022/05/23 08:35:48;;;;;;;5.53;1.55;;;;;;;;;;5036149;28;20035;-80
2022/05/23 08:38:15;;;;;;;4.00;1.33;;;;;;;;;;5037924;28;20032;-81
2022/05/23 08:41:16;;;;;;;8.88;1.70;;;;;;;;;;5036393;28;20021;-80
2022/05/23 08:44:06;;;;;;;6.45;1.92;;;;;;;;;;5036628;28;20068;-80
2022/05/23 08:46:42;;;;;;;5.38;1.60;;;;;;;;;;5019925;28;20406;-79
2022/05/23 08:49:08;;;;;;;;;;;;;;;;;;5020682;28;20033;-79
2022/05/23 08:51:45;;;;;;;6.85;1.33;;;;;;;;;;5036105;28;20421;-79
2022/05/23 08:54:27;;;;;;;4.38;1.48;;;;;;;;;;5019985;28;20572;-80
2022/05/23 08:57:32;;;;;;;6.60;1.52;;;;;;;;;;5054025;28;20025;-80
2022/05/23 09:00:01;;;;;;;5.95;1.60;;;;;;;;;;5051217;28;20033;-78
2022/05/23 09:02:32;;;;;;;4.38;1.38;;;;;;;;;;5036275;28;20025;-79
2022/05/23 09:05:09;;;;;;;3.78;1.30;;;;;;;;;;5036007;28;20025;-81
2022/05/23 09:07:40;;;;;;;9.23;1.58;;;;;;;;;;5054127;28;20091;-81
2022/05/23 09:10:10;;;;;;;5.20;1.33;;;;;;;;;;5036455;28;20480;-78
2022/05/23 09:12:35;;;;;;;8.15;2.58;;;;;;;;;;5053845;28;20021;-80
2022/05/23 09:15:01;;;;;;;5.93;1.55;;;;;;;;;;5044684;28;20079;-79
2022/05/23 09:17:35;;;;;;;4.90;1.60;;;;;;;;;;5036585;28;20057;-81
2022/05/23 09:20:16;;;;;;;7.10;1.50;;;;;;;;;;5035511;28;20522;-81
2022/05/23 09:22:43;;;;;;;7.20;1.58;;;;;;;;;;5020747;28;20049;-81
2022/05/23 09:25:10;;;;;;;5.67;1.73;;;;;;;;;;5004412;28;20087;-81
2022/05/23 09:27:37;;;;;;;8.23;1.70;;;;;;;;;;5040756;28;20029;-81
2022/05/23 09:30:08;;;;;;;3.77;1.20;;;;;;;;;;5057883;28;20588;-82
2022/05/23 09:32:53;;;;;;;5.15;1.50;;;;;;;;;;5049659;28;20021;-82
2022/05/23 09:35:23;;;;;;;5.68;1.60;;;;;;;;;;5017525;28;20630;-80
2022/05/23 09:38:12;;;;;;;5.85;1.52;;;;;;;;;;5034169;28;20040;-81
2022/05/23 09:40:52;;;;;;;5.43;1.58;;;;;;;;;;5015666;28;20033;-81
2022/05/23 09:49:07;;;;;;;3.10;1.27;;;;;;;;;;5031833;28;20048;-81
2022/05/23 09:51:52;;;;;;;7.88;1.98;;;;;;;;;;5052840;28;20021;-82
2022/05/23 09:54:43;;;;;;;4.75;1.58;;;;;;;;;;5035287;28;20091;-80
2022/05/23 09:57:17;;;;;;;4.32;1.45;;;;;;;;;;5052583;28;20570;-81
2022/05/23 09:59:43;;;;;;;7.97;1.70;;;;;;;;;;5051702;28;20056;-81
2022/05/23 10:02:27;;;;;;;9.00;1.50;;;;;;;;;;5052609;28;20484;-80
2022/05/23 10:04:52;;;;;;;5.93;1.45;;;;;;;;;;5016043;28;20073;-81
2022/05/23 10:07:22;;;;;;;3.72;1.67;;;;;;;;;;5051406;28;20052;-81
2022/05/23 10:10:14;;;;;;;7.15;1.60;;;;;;;;;;5053134;28;20031;-82
2022/05/23 10:13:15;;;;;;;4.22;1.58;;;;;;;;;;5034288;28;20612;-79
2022/05/23 10:15:45;;;;;;;9.32;1.70;;;;;;;;;;5052190;28;20029;-78
2022/05/23 10:18:17;;;;;;;6.00;1.55;;;;;;;;;;5052625;28;20400;-80
2022/05/23 10:20:43;;;;;;;7.63;1.40;;;;;;;;;;5046199;28;20040;-79
2022/05/23 10:23:15;;;;;;;3.35;1.48;;;;;;;;;;5052313;28;20487;-79
2022/05/23 10:25:47;;;;;;;5.57;1.88;;;;;;;;;;5052639;28;20028;-79
2022/05/23 10:28:15;;;;;;;10.73;1.73;;;;;;;;;;5018697;28;20120;-80
2022/05/23 10:30:44;;;;;;;8.30;1.77;;;;;;;;;;5052262;28;20024;-81
2022/05/23 10:33:12;;;;;;;5.82;1.90;;;;;;;;;;5002709;28;20044;-78
2022/05/23 10:35:58;;;;;;;4.05;1.40;;;;;;;;;;5052195;28;20128;-75
2022/05/23 10:44:03;;;;;;;7.93;1.50;;;;;;;;;;5052102;28;20048;-77
2022/05/23 10:46:30;;;;;;;4.50;2.08;;;;;;;;;;5053444;28;20021;-77
2022/05/23 10:49:07;;;;;;;6.95;1.45;;;;;;;;;;5052310;28;20035;-77
2022/05/23 10:51:38;;;;;;;6.55;1.48;;;;;;;;;;5018497;28;20029;-77
2022/05/23 10:54:27;;;;;;;6.05;1.40;;;;;;;;;;5048216;28;20492;-76
2022/05/23 10:57:16;;;;;;;5.32;1.35;;;;;;;;;;5017837;28;20048;-76
2022/05/23 10:59:54;;;;;;;4.47;1.55;;;;;;;;;;5052510;28;20025;-76
2022/05/23 11:02:31;;;;;;;11.40;1.60;;;;;;;;;;5033681;28;20487;-77
2022/05/23 11:05:16;;;;;;;4.05;1.52;;;;;;;;;;5049824;28;20033;-77
2022/05/23 11:07:51;;;;;;;6.97;1.48;;;;;;;;;;5051691;28;20040;-75
2022/05/23 11:10:24;;;;;;;4.47;1.50;;;;;;;;;;5033698;28;20033;-77
2022/05/23 11:12:51;;;;;;;6.50;1.50;;;;;;;;;;5039096;28;20088;-76
2022/05/23 11:15:17;;;;;;;6.70;1.70;;;;;;;;;;5013469;28;20075;-77
2022/05/23 11:17:45;;;;;;;4.03;1.38;;;;;;;;;;5031324;28;20560;-77
2022/05/23 11:20:29;;;;;;;6.63;1.88;;;;;;;;;;5031399;28;20053;-75
2022/05/23 11:23:18;;;;;;;6.03;2.17;;;;;;;;;;5031303;28;20601;-75
2022/05/23 11:25:46;;;;;;;5.72;1.90;;;;;;;;;;4978029;28;20029;-76
2022/05/23 11:34:16;;;;;;;6.10;2.47;;;;;;;;;;5051326;28;20043;-76
2022/05/23 11:36:56;;;;;;;3.45;1.50;;;;;;;;;;5051368;28;20040;-76
2022/05/23 11:39:40;;;;;;;7.28;1.90;;;;;;;;;;5034277;28;20036;-76
2022/05/23 11:42:30;;;;;;;7.88;1.92;;;;;;;;;;5018327;28;20100;-76
2022/05/23 11:44:58;;;;;;;4.43;1.80;;;;;;;;;;5030614;28;20044;-77
2022/05/23 11:47:25;;;;;;;5.13;1.52;;;;;;;;;;5055450;28;20025;-77
2022/05/23 11:50:00;;;;;;;10.85;1.90;;;;;;;;;;5042602;28;20030;-76
2022/05/23 11:52:25;;;;;;;9.95;2.42;;;;;;;;;;5052432;28;20044;-78
2022/05/23 11:54:51;;;;;;;6.60;1.45;;;;;;;;;;5063995;28;20033;-75
2022/05/23 11:57:35;;;;;;;6.45;1.52;;;;;;;;;;5062717;28;20059;-75
2022/05/23 12:00:35;;;;;;;4.43;1.63;;;;;;;;;;5028374;28;20482;-78
2022/05/23 12:03:09;;;;;;;5.05;1.55;;;;;;;;;;5026247;28;20036;-78
2022/05/23 12:05:35;;;;;;;5.70;1.55;;;;;;;;;;5053530;28;20021;-78
2022/05/23 12:08:02;;;;;;;6.30;1.60;;;;;;;;;;5036317;28;20104;-77
2022/05/23 12:10:28;;;;;;;3.50;1.48;;;;;;;;;;5038367;28;20035;-75
2022/05/23 12:12:55;;;;;;;10.50;2.05;;;;;;;;;;5036975;28;20075;-76
2022/05/23 12:15:39;;;;;;;4.45;1.50;;;;;;;;;;5049955;28;20024;-75
2022/05/23 12:18:05;;;;;;;6.18;1.48;;;;;;;;;;5044295;28;20025;-77
2022/05/23 12:20:32;;;;;;;12.23;1.83;;;;;;;;;;5036762;28;20029;-77
2022/05/23 12:23:07;;;;;;;4.95;1.65;;;;;;;;;;5053147;28;20037;-77
2022/05/23 12:25:33;;;;;;;9.52;1.58;;;;;;;;;;5062123;28;20031;-77
2022/05/23 12:28:10;;;;;;;4.63;1.63;;;;;;;;;;5038791;28;20026;-77
2022/05/23 12:30:37;;;;;;;5.85;2.30;;;;;;;;;;5024277;28;20029;-77
2022/05/23 12:33:02;;;;;;;5.47;1.60;;;;;;;;;;5029584;28;20045;-77
2022/05/23 12:35:40;;;;;;;5.18;1.58;;;;;;;;;;5031609;28;20032;-77
2022/05/23 12:38:10;;;;;;;11.13;1.77;;;;;;;;;;5071914;28;20036;-77
2022/05/23 12:40:42;;;;;;;5.57;1.88;;;;;;;;;;5025419;28;20125;-77
2022/05/23 12:43:26;;;;;;;6.45;1.42;;;;;;;;;;5030185;28;20036;-76
2022/05/23 12:45:59;;;;;;;3.75;1.40;;;;;;;;;;5049437;28;20056;-77
2022/05/23 12:48:27;;;;;;;7.43;1.58;;;;;;;;;;5018023;28;20025;-77
2022/05/23 12:51:08;;;;;;;6.57;1.75;;;;;;;;;;5036150;28;20052;-77
2022/05/23 12:53:49;;;;;;;6.50;1.52;;;;;;;;;;5031025;28;20049;-77
2022/05/23 12:56:24;;;;;;;3.70;1.67;;;;;;;;;;4999637;28;20029;-77
2022/05/23 12:59:08;;;;;;;4.95;1.55;;;;;;;;;;5042170;28;20031;-78
2022/05/23 13:01:36;;;;;;;5.22;1.60;;;;;;;;;;5048145;28;20033;-77
2022/05/23 13:04:08;;;;;;;6.10;1.92;;;;;;;;;;5047196;28;20030;-80
2022/05/23 13:06:54;;;;;;;4.22;1.83;;;;;;;;;;5027176;28;20108;-77
2022/05/23 13:09:33;;;;;;;5.63;1.60;;;;;;;;;;5002487;28;20040;-76
2022/05/23 13:12:05;;;;;;;5.18;1.90;;;;;;;;;;5033212;28;20039;-76
2022/05/23 13:14:50;;;;;;;8.95;1.90;;;;;;;;;;5037517;28;20057;-76
2022/05/23 13:17:29;;;;;;;8.13;1.63;;;;;;;;;;5031853;28;20055;-75
2022/05/23 13:23:02;;;;;;;4.00;1.85;;;;;;;;;;4987935;28;20051;-77
2022/05/23 13:25:33;;;;;;;5.18;1.90;;;;;;;;;;4950147;28;20110;-76
2022/05/23 13:27:59;;;;;;;8.43;2.05;;;;;;;;;;4987156;28;20041;-77
2022/05/23 13:30:35;;;;;;;4.90;1.70;;;;;;;;;;5032795;28;20452;-77
2022/05/23 13:33:09;;;;;;;8.52;2.00;;;;;;;;;;5014893;28;20099;-77
2022/05/23 13:35:38;;;;;;;7.43;1.67;;;;;;;;;;5010321;28;20087;-75
2022/05/23 13:38:16;;;;;;;4.75;1.63;;;;;;;;;;5033097;28;20033;-77
2022/05/23 13:40:43;;;;;;;4.32;1.70;;;;;;;;;;5049416;28;20108;-76
2022/05/23 13:43:14;;;;;;;7.28;2.08;;;;;;;;;;5050921;28;20050;-75
2022/05/23 13:45:42;;;;;;;4.13;1.85;;;;;;;;;;5034689;28;20112;-77
2022/05/23 13:48:21;;;;;;;4.57;1.67;;;;;;;;;;5052720;28;20033;-78
2022/05/23 13:50:51;;;;;;;12.48;2.33;;;;;;;;;;5053467;28;20403;-75
2022/05/23 13:53:26;;;;;;;6.00;1.63;;;;;;;;;;5035314;28;20037;-77
2022/05/23 13:55:52;;;;;;;5.97;1.42;;;;;;;;;;5051074;28;20109;-76
2022/05/23 13:58:23;;;;;;;6.50;2.63;;;;;;;;;;5052347;28;20115;-76
2022/05/23 14:01:17;;;;;;;5.72;1.70;;;;;;;;;;5053600;28;20021;-78
2022/05/23 14:03:45;;;;;;;6.88;1.73;;;;;;;;;;5045777;28;20443;-76
2022/05/23 14:06:12;;;;;;;8.13;2.00;;;;;;;;;;5017456;28;20025;-75
2022/05/23 14:08:40;;;;;;;5.95;1.73;;;;;;;;;;5015968;28;20032;-79
2022/05/23 14:11:18;;;;;;;5.00;1.80;;;;;;;;;;5051488;28;21033;-76
2022/05/23 14:13:44;;;;;;;5.45;1.98;;;;;;;;;;5053095;28;20083;-77
2022/05/23 14:16:14;;;;;;;5.45;1.77;;;;;;;;;;5052598;28;20115;-76
2022/05/23 14:18:39;;;;;;;4.20;1.67;;;;;;;;;;5051173;28;20111;-77
2022/05/23 14:21:05;;;;;;;4.43;1.80;;;;;;;;;;5052446;28;20178;-76
2022/05/23 14:23:33;;;;;;;9.75;1.90;;;;;;;;;;5052176;28;20033;-76
2022/05/23 14:25:58;;;;;;;4.78;1.65;;;;;;;;;;5034771;28;20055;-77
2022/05/23 14:28:25;;;;;;;3.60;1.73;;;;;;;;;;5052304;28;20048;-76
2022/05/23 14:30:52;;;;;;;10.05;2.45;;;;;;;;;;5028134;28;20029;-78
2022/05/23 14:33:36;;;;;;;6.90;2.00;;;;;;;;;;5014881;28;20064;-77
2022/05/23 14:36:09;;;;;;;5.93;1.77;;;;;;;;;;5031473;28;20061;-75
2022/05/23 14:38:38;;;;;;;5.38;2.60;;;;;;;;;;5014536;28;20041;-74
2022/05/23 14:41:20;;;;;;;13.55;2.30;;;;;;;;;;5032634;28;20554;-75
2022/05/23 14:43:46;;;;;;;5.60;1.70;;;;;;;;;;5013946;28;20037;-77
2022/05/23 14:46:22;;;;;;;6.25;1.95;;;;;;;;;;5042609;28;20070;-77
2022/05/23 14:48:57;;;;;;;9.32;2.08;;;;;;;;;;5051362;28;20033;-77
2022/05/23 14:51:26;;;;;;;6.28;2.00;;;;;;;;;;5017678;28;20029;-76
2022/05/23 14:56:50;;;;;;;10.00;2.42;;;;;;;;;;5051671;28;20502;-77
2022/05/23 15:02:02;;;;;;;5.18;2.10;;;;;;;;;;5045464;28;20025;-77
2022/05/23 15:04:30;;;;;;;5.68;1.98;;;;;;;;;;5052009;28;20032;-77
2022/05/23 15:06:56;;;;;;;8.73;2.10;;;;;;;;;;5033490;28;20017;-76
2022/05/23 15:09:22;;;;;;;7.50;1.90;;;;;;;;;;5051695;28;20113;-77
2022/05/23 15:11:48;;;;;;;4.93;2.00;;;;;;;;;;5051327;28;20495;-77
2022/05/23 15:14:14;;;;;;;9.57;2.35;;;;;;;;;;5033756;28;20399;-78
2022/05/23 15:16:40;;;;;;;5.47;2.20;;;;;;;;;;5035233;28;20114;-77
2022/05/23 15:19:08;;;;;;;6.43;2.40;;;;;;;;;;5055509;28;20194;-77
2022/05/23 15:21:34;;;;;;;7.82;2.28;;;;;;;;;;5050484;28;20483;-75
2022/05/23 15:23:59;;;;;;;12.93;2.53;;;;;;;;;;5035702;28;20040;-75
2022/05/23 15:26:27;;;;;;;6.40;1.80;;;;;;;;;;5054727;28;20021;-78
2022/05/23 15:28:52;;;;;;;15.18;2.33;;;;;;;;;;5021727;28;20086;-75
2022/05/23 15:31:19;;;;;;;8.23;2.08;;;;;;;;;;5055144;28;20029;-75
2022/05/23 15:33:48;;;;;;;6.15;2.50;;;;;;;;;;5037905;28;20033;-77
2022/05/23 15:36:17;;;;;;;10.88;2.25;;;;;;;;;;5037402;28;20145;-82
2022/05/23 15:38:43;;;;;;;4.97;1.73;;;;;;;;;;5053630;28;20017;-76
2022/05/23 15:41:09;;;;;;;9.60;2.00;;;;;;;;;;5054293;28;20025;-78
2022/05/23 15:43:36;;;;;;;8.52;2.05;;;;;;;;;;5053721;28;20059;-75
2022/05/23 15:46:02;;;;;;;10.35;2.42;;;;;;;;;;5019880;28;20079;-78
2022/05/23 15:48:28;;;;;;;6.28;2.28;;;;;;;;;;5037027;28;20261;-76
2022/05/23 15:50:53;;;;;;;6.53;1.98;;;;;;;;;;5055339;28;20025;-76
2022/05/23 15:53:19;;;;;;;6.53;2.10;;;;;;;;;;5020675;28;20029;-76
2022/05/23 15:55:45;;;;;;;6.05;1.73;;;;;;;;;;5036559;28;20491;-77
2022/05/23 15:58:12;;;;;;;6.05;1.92;;;;;;;;;;5020361;28;20033;-75
2022/05/23 16:00:38;;;;;;;8.48;1.85;;;;;;;;;;5035715;28;20091;-75
2022/05/23 16:03:05;;;;;;;11.18;2.30;;;;;;;;;;5017154;28;20491;-76
2022/05/23 16:05:31;;;;;;;5.75;1.80;;;;;;;;;;5034624;28;20025;-76
2022/05/23 16:07:56;;;;;;;4.65;1.90;;;;;;;;;;5033524;28;20025;-77
2022/05/23 16:10:22;;;;;;;12.15;2.10;;;;;;;;;;5034633;28;20431;-76
2022/05/23 16:12:50;;;;;;;7.85;2.05;;;;;;;;;;5017185;28;20057;-77
2022/05/23 16:15:19;;;;;;;11.68;2.63;;;;;;;;;;5036491;28;20429;-76